createdAt,value
2024-05-09T00:00:43.685Z,10.62
2024-05-09T00:03:13.964Z,10.57
2024-05-09T00:05:44.770Z,10.53
2024-05-09T00:08:16.245Z,10.50
2024-05-09T00:10:46.261Z,10.44
2024-05-09T00:13:19.422Z,10.39
2024-05-09T00:15:49.547Z,10.35
2024-05-09T00:18:19.546Z,10.33
2024-05-09T00:20:49.695Z,10.30
2024-05-09T00:23:19.841Z,10.26
2024-05-09T00:25:49.873Z,10.20
2024-05-09T00:28:19.860Z,10.13
2024-05-09T00:30:49.882Z,10.09
2024-05-09T00:33:20.248Z,10.03
2024-05-09T00:35:50.403Z,9.98
2024-05-09T00:38:20.373Z,9.93
2024-05-09T00:40:50.358Z,9.88
2024-05-09T00:43:20.365Z,9.81
2024-05-09T00:45:50.324Z,9.73
2024-05-09T00:48:21.579Z,9.66
2024-05-09T00:50:53.894Z,9.59
2024-05-09T00:53:24.954Z,9.55
2024-05-09T00:55:55.240Z,9.49
2024-05-09T00:58:28.228Z,9.44
2024-05-09T01:01:00.487Z,9.42
2024-05-09T01:03:30.740Z,9.40
2024-05-09T01:06:00.867Z,9.37
2024-05-09T01:08:31.075Z,9.32
2024-05-09T01:11:01.258Z,9.29
2024-05-09T01:13:31.434Z,9.28
2024-05-09T01:16:01.544Z,9.27
2024-05-09T01:18:31.797Z,9.26
2024-05-09T01:21:01.854Z,9.26
2024-05-09T01:23:31.893Z,9.25
2024-05-09T01:26:01.928Z,9.23
2024-05-09T01:28:31.891Z,9.26
2024-05-09T01:31:01.842Z,9.24
2024-05-09T01:33:32.084Z,9.25
2024-05-09T01:36:02.486Z,9.25
2024-05-09T01:38:32.594Z,9.24
2024-05-09T01:41:02.726Z,9.23
2024-05-09T01:43:32.930Z,9.22
2024-05-09T01:46:02.868Z,9.19
2024-05-09T01:48:32.833Z,9.18
2024-05-09T01:51:02.958Z,9.15
2024-05-09T01:53:33.283Z,9.11
2024-05-09T01:56:03.488Z,9.03
2024-05-09T01:58:33.377Z,8.94
2024-05-09T02:01:03.353Z,8.84
2024-05-09T02:03:33.376Z,8.78
2024-05-09T02:06:03.620Z,8.73
2024-05-09T02:08:33.779Z,8.70
2024-05-09T02:11:04.002Z,8.67
2024-05-09T02:13:34.862Z,8.63
2024-05-09T02:16:05.325Z,8.58
2024-05-09T02:18:35.806Z,8.53
2024-05-09T02:21:06.568Z,8.47
2024-05-09T02:23:36.732Z,8.41
2024-05-09T02:26:07.003Z,8.40
2024-05-09T02:28:37.058Z,8.42
2024-05-09T02:31:07.212Z,8.44
2024-05-09T02:33:37.492Z,8.42
2024-05-09T02:36:09.104Z,8.42
2024-05-09T02:38:39.344Z,8.41
2024-05-09T02:41:10.800Z,8.41
2024-05-09T02:43:40.804Z,8.39
2024-05-09T02:46:10.704Z,8.39
2024-05-09T02:48:40.675Z,8.36
2024-05-09T02:51:10.897Z,8.33
2024-05-09T02:53:40.891Z,8.28
2024-05-09T02:56:11.014Z,8.22
2024-05-09T02:58:41.044Z,8.14
2024-05-09T03:01:10.982Z,8.06
2024-05-09T03:03:44.966Z,8.01
2024-05-09T03:06:15.037Z,7.97
2024-05-09T03:08:47.511Z,7.93
2024-05-09T03:11:24.309Z,7.90
2024-05-09T03:13:55.152Z,7.88
2024-05-09T03:16:25.228Z,7.88
2024-05-09T03:18:55.463Z,7.86
2024-05-09T03:21:25.609Z,7.84
2024-05-09T03:23:55.509Z,7.82
2024-05-09T03:26:25.536Z,7.79
2024-05-09T03:28:58.743Z,7.78
2024-05-09T03:31:28.652Z,7.80
2024-05-09T03:33:58.635Z,7.80
2024-05-09T03:36:28.710Z,7.82
2024-05-09T03:38:58.614Z,7.85
2024-05-09T03:41:28.691Z,7.86
2024-05-09T03:43:58.769Z,7.90
2024-05-09T03:46:28.844Z,7.94
2024-05-09T03:48:58.920Z,7.97
2024-05-09T03:51:28.938Z,8.01
2024-05-09T03:53:58.902Z,8.08
2024-05-09T03:56:28.881Z,8.25
2024-05-09T03:58:59.369Z,8.51
2024-05-09T04:01:29.852Z,8.77
2024-05-09T04:03:59.947Z,9.03
2024-05-09T04:06:29.932Z,9.32
2024-05-09T04:08:59.804Z,9.58
2024-05-09T04:11:29.805Z,9.83
2024-05-09T04:13:59.854Z,10.08
2024-05-09T04:16:29.899Z,10.34
2024-05-09T04:18:59.809Z,10.60
2024-05-09T04:21:29.803Z,10.86
2024-05-09T04:23:59.705Z,11.12
2024-05-09T04:26:29.711Z,11.40
2024-05-09T04:28:59.783Z,11.66
2024-05-09T04:31:30.053Z,11.92
2024-05-09T04:34:00.116Z,12.15
2024-05-09T04:36:30.210Z,12.37
2024-05-09T04:39:00.109Z,12.64
2024-05-09T04:41:30.085Z,12.86
2024-05-09T04:44:00.142Z,13.00
2024-05-09T04:46:30.150Z,13.20
2024-05-09T04:49:00.162Z,13.28
2024-05-09T04:51:30.193Z,13.31
2024-05-09T04:54:00.121Z,13.33
2024-05-09T04:56:30.031Z,13.41
2024-05-09T04:59:00.078Z,13.48
2024-05-09T05:01:30.239Z,13.56
2024-05-09T05:04:00.623Z,13.51
2024-05-09T05:06:31.046Z,13.41
2024-05-09T05:09:00.910Z,13.27
2024-05-09T05:11:30.900Z,13.11
2024-05-09T05:14:00.941Z,12.96
2024-05-09T05:16:30.972Z,12.77
2024-05-09T05:19:01.090Z,12.61
2024-05-09T05:21:31.220Z,12.45
2024-05-09T05:24:01.233Z,12.26
2024-05-09T05:26:31.139Z,12.18
2024-05-09T05:29:01.177Z,12.19
2024-05-09T05:31:31.226Z,12.21
2024-05-09T05:34:01.264Z,12.20
2024-05-09T05:36:31.288Z,12.24
2024-05-09T05:39:01.200Z,12.29
2024-05-09T05:41:31.166Z,12.31
2024-05-09T05:44:01.616Z,12.37
2024-05-09T05:46:31.599Z,12.45
2024-05-09T05:49:01.593Z,12.55
2024-05-09T05:51:31.621Z,12.63
2024-05-09T05:54:01.524Z,12.70
2024-05-09T05:56:31.576Z,12.77
2024-05-09T05:59:01.710Z,12.83
2024-05-09T06:01:31.734Z,12.93
2024-05-09T06:04:01.765Z,13.03
2024-05-09T06:06:31.964Z,13.14
2024-05-09T06:09:01.908Z,13.26
2024-05-09T06:11:32.054Z,13.36
2024-05-09T06:14:02.107Z,13.43
2024-05-09T06:16:32.178Z,13.55
2024-05-09T06:19:02.130Z,13.68
2024-05-09T06:21:32.033Z,13.80
2024-05-09T06:24:06.221Z,13.93
2024-05-09T06:26:36.672Z,14.07
2024-05-09T06:29:06.776Z,14.16
2024-05-09T06:31:41.286Z,14.22
2024-05-09T06:34:11.616Z,14.26
2024-05-09T06:36:42.002Z,14.32
2024-05-09T06:39:11.884Z,14.43
2024-05-09T06:41:42.280Z,14.51
2024-05-09T06:44:12.624Z,14.61
2024-05-09T06:46:42.765Z,14.75
2024-05-09T06:49:13.398Z,14.91
2024-05-09T06:51:43.506Z,14.96
2024-05-09T06:54:13.402Z,15.01
2024-05-09T06:56:43.326Z,15.08
2024-05-09T06:59:13.226Z,15.14
2024-05-09T07:01:43.477Z,15.27
2024-05-09T07:04:13.523Z,15.32
2024-05-09T07:06:43.541Z,15.32
2024-05-09T07:09:13.445Z,15.32
2024-05-09T07:11:43.398Z,15.39
2024-05-09T07:14:13.417Z,15.48
2024-05-09T07:16:43.343Z,15.56
2024-05-09T07:19:13.337Z,15.64
2024-05-09T07:21:43.370Z,15.71
2024-05-09T07:24:13.253Z,15.83
2024-05-09T07:26:43.241Z,15.95
2024-05-09T07:29:13.176Z,16.08
2024-05-09T07:31:43.140Z,16.18
2024-05-09T07:34:13.054Z,16.25
2024-05-09T07:36:43.037Z,16.34
2024-05-09T07:39:12.881Z,16.41
2024-05-09T07:41:42.745Z,16.53
2024-05-09T07:44:12.656Z,16.66
2024-05-09T07:50:56.068Z,16.92
2024-05-09T07:54:40.166Z,17.13
2024-05-09T07:57:10.135Z,17.25
2024-05-09T07:59:40.051Z,17.36
2024-05-09T08:02:10.274Z,17.48
2024-05-09T08:04:40.424Z,17.52
2024-05-09T08:07:10.600Z,17.61
2024-05-09T08:09:41.279Z,17.79
2024-05-09T08:12:12.784Z,17.87
2024-05-09T08:14:42.948Z,17.90
2024-05-09T08:17:12.901Z,17.93
2024-05-09T08:19:42.954Z,18.09
2024-05-09T08:22:13.131Z,18.20
2024-05-09T08:24:45.641Z,18.27
2024-05-09T08:27:15.652Z,18.33
2024-05-09T08:29:45.564Z,18.44
2024-05-09T08:32:16.587Z,18.55
2024-05-09T08:34:46.584Z,18.67
2024-05-09T08:37:22.331Z,18.76
2024-05-09T08:39:54.792Z,18.83
2024-05-09T08:42:25.424Z,18.86
2024-05-09T08:44:55.287Z,18.81
2024-05-09T08:47:27.245Z,18.80
2024-05-09T08:49:59.063Z,18.85
2024-05-09T08:52:29.247Z,18.90
2024-05-09T08:54:59.164Z,19.01
2024-05-09T08:57:30.875Z,19.09
2024-05-09T09:00:06.256Z,19.19
2024-05-09T09:02:40.050Z,19.24
2024-05-09T09:05:16.629Z,19.30
2024-05-09T09:07:48.428Z,19.34
2024-05-09T09:10:28.983Z,19.42
2024-05-09T09:13:04.731Z,19.43
2024-05-09T09:15:35.345Z,19.42
2024-05-09T09:20:37.254Z,19.44
2024-05-09T09:23:08.684Z,19.60
2024-05-09T09:25:41.270Z,19.78
2024-05-09T09:28:12.118Z,20.01
2024-05-09T09:30:43.199Z,20.23
2024-05-09T09:33:14.142Z,20.46
2024-05-09T09:35:44.477Z,20.70
2024-05-09T09:38:18.991Z,20.86
2024-05-09T09:40:50.571Z,20.93
2024-05-09T09:43:22.947Z,20.92
2024-05-09T09:45:59.137Z,20.91
2024-05-09T09:48:31.364Z,20.96
2024-05-09T09:51:02.194Z,21.03
2024-05-09T09:53:34.161Z,21.13
2024-05-09T09:56:05.357Z,21.23
2024-05-09T09:58:37.012Z,21.36
2024-05-09T10:01:07.393Z,21.46
2024-05-09T10:03:37.687Z,21.57
2024-05-09T10:06:09.567Z,21.60
2024-05-09T10:08:40.219Z,21.61
2024-05-09T10:11:10.845Z,21.57
2024-05-09T10:13:44.847Z,21.51
2024-05-09T10:16:20.826Z,21.54
2024-05-09T10:18:51.113Z,21.59
2024-05-09T10:21:21.878Z,21.64
2024-05-09T10:24:03.237Z,21.69
2024-05-09T10:26:34.155Z,21.76
2024-05-09T10:29:12.938Z,21.86
2024-05-09T10:31:46.491Z,21.91
2024-05-09T10:34:23.999Z,21.95
2024-05-09T10:36:57.561Z,22.09
2024-05-09T10:39:28.283Z,22.23
2024-05-09T10:41:58.231Z,22.21
2024-05-09T10:44:29.310Z,22.31
2024-05-09T10:46:59.309Z,22.45
2024-05-09T10:49:29.455Z,22.52
2024-05-09T10:51:59.439Z,22.63
2024-05-09T10:54:39.004Z,22.72
2024-05-09T10:57:09.181Z,22.76
2024-05-09T10:59:42.237Z,22.93
2024-05-09T11:02:13.541Z,23.12
2024-05-09T11:04:45.001Z,23.30
2024-05-09T11:07:17.020Z,23.51
2024-05-09T11:09:47.572Z,23.73
2024-05-09T11:12:19.989Z,23.90
2024-05-09T11:14:57.114Z,23.97
2024-05-09T11:17:27.341Z,24.10
2024-05-09T11:19:57.452Z,24.00
2024-05-09T11:22:33.609Z,23.97
2024-05-09T11:25:04.928Z,23.83
2024-05-09T11:27:34.970Z,23.69
2024-05-09T11:30:09.170Z,23.36
2024-05-09T11:32:43.372Z,22.78
2024-05-09T11:35:13.723Z,22.54
2024-05-09T11:37:43.666Z,22.60
2024-05-09T11:40:21.370Z,22.76
2024-05-09T11:42:55.642Z,23.05
2024-05-09T11:45:25.655Z,23.37
2024-05-09T11:47:55.840Z,23.62
2024-05-09T11:50:30.202Z,23.84
2024-05-09T11:53:05.251Z,24.23
2024-05-09T11:58:06.618Z,24.57
2024-05-09T12:00:37.749Z,24.17
2024-05-09T12:03:08.520Z,23.97
2024-05-09T12:05:38.635Z,24.07
2024-05-09T12:08:09.657Z,24.27
2024-05-09T12:10:39.898Z,24.53
2024-05-09T12:13:10.091Z,24.72
2024-05-09T12:15:40.329Z,24.89
2024-05-09T12:18:10.376Z,25.13
2024-05-09T12:20:40.492Z,25.33
2024-05-09T12:23:11.108Z,25.49
2024-05-09T12:25:41.673Z,25.69
2024-05-09T12:28:14.122Z,25.76
2024-05-09T12:30:44.145Z,25.79
2024-05-09T12:33:14.720Z,25.67
2024-05-09T12:35:46.743Z,25.68
2024-05-09T12:38:18.951Z,25.81
2024-05-09T12:40:48.934Z,25.99
2024-05-09T12:43:19.298Z,26.17
2024-05-09T12:45:49.618Z,26.33
2024-05-09T12:48:19.817Z,26.37
2024-05-09T12:50:49.864Z,26.24
2024-05-09T12:53:19.839Z,26.01
2024-05-09T12:55:56.678Z,25.67
2024-05-09T12:58:30.172Z,25.42
2024-05-09T13:01:00.292Z,25.29
2024-05-09T13:03:30.496Z,25.19
2024-05-09T13:06:00.580Z,25.01
2024-05-09T13:08:30.646Z,24.95
2024-05-09T13:11:01.008Z,24.82
2024-05-09T13:13:30.880Z,24.80
2024-05-09T13:16:00.892Z,24.88
2024-05-09T13:18:33.151Z,24.97
2024-05-09T13:21:03.275Z,25.11
2024-05-09T13:23:33.234Z,25.24
2024-05-09T13:26:03.195Z,25.33
2024-05-09T13:28:33.336Z,25.46
2024-05-09T13:31:04.277Z,25.56
2024-05-09T13:33:35.163Z,25.67
2024-05-09T13:36:06.280Z,25.89
2024-05-09T13:38:36.235Z,26.03
2024-05-09T13:41:06.515Z,26.17
2024-05-09T13:43:36.454Z,26.27
2024-05-09T13:46:07.169Z,26.28
2024-05-09T13:48:37.245Z,26.40
2024-05-09T13:51:08.098Z,26.56
2024-05-09T13:53:38.105Z,26.64
2024-05-09T13:56:09.150Z,26.69
2024-05-09T13:58:39.193Z,26.59
2024-05-09T14:01:09.230Z,26.63
2024-05-09T14:03:39.387Z,26.51
2024-05-09T14:06:13.010Z,26.39
2024-05-09T14:08:43.503Z,26.42
2024-05-09T14:11:13.547Z,26.49
2024-05-09T14:13:43.639Z,26.36
2024-05-09T14:16:14.201Z,26.27
2024-05-09T14:18:44.417Z,26.26
2024-05-09T14:21:14.507Z,26.30
2024-05-09T14:23:44.405Z,26.38
2024-05-09T14:26:14.584Z,26.42
2024-05-09T14:28:44.487Z,26.40
2024-05-09T14:31:14.424Z,26.34
2024-05-09T14:33:44.654Z,26.26
2024-05-09T14:36:14.668Z,26.21
2024-05-09T14:38:44.723Z,26.29
2024-05-09T14:41:16.995Z,26.41
2024-05-09T14:43:46.914Z,26.46
2024-05-09T14:46:17.031Z,26.30
2024-05-09T14:48:47.451Z,26.25
2024-05-09T14:51:17.552Z,26.27
2024-05-09T14:53:47.618Z,26.32
2024-05-09T14:56:17.995Z,26.32
2024-05-09T14:58:47.991Z,26.21
2024-05-09T15:01:20.206Z,26.10
2024-05-09T15:03:50.560Z,26.09
2024-05-09T15:06:20.845Z,26.13
2024-05-09T15:08:57.015Z,26.00
2024-05-09T15:11:27.440Z,25.79
2024-05-09T15:13:57.369Z,25.71
2024-05-09T15:16:27.794Z,25.71
2024-05-09T15:18:59.004Z,25.67
2024-05-09T15:21:29.131Z,25.64
2024-05-09T15:24:00.041Z,25.58
2024-05-09T15:26:30.020Z,25.53
2024-05-09T15:28:59.959Z,25.58
2024-05-09T15:31:29.914Z,25.62
2024-05-09T15:34:00.087Z,25.55
2024-05-09T15:36:30.248Z,25.47
2024-05-09T15:39:00.354Z,25.47
2024-05-09T15:41:30.273Z,25.39
2024-05-09T15:44:00.147Z,25.35
2024-05-09T15:46:30.176Z,25.34
2024-05-09T15:49:00.564Z,25.35
2024-05-09T15:51:30.680Z,25.38
2024-05-09T15:54:00.703Z,25.48
2024-05-09T15:56:31.000Z,25.51
2024-05-09T15:59:01.354Z,25.45
2024-05-09T16:01:31.430Z,25.30
2024-05-09T16:04:01.703Z,25.22
2024-05-09T16:06:33.409Z,25.16
2024-05-09T16:09:03.593Z,25.14
2024-05-09T16:11:33.518Z,25.03
2024-05-09T16:14:03.465Z,24.80
2024-05-09T16:16:33.637Z,24.60
2024-05-09T16:19:03.684Z,24.49
2024-05-09T16:21:33.680Z,24.48
2024-05-09T16:24:03.679Z,24.49
2024-05-09T16:26:33.773Z,24.41
2024-05-09T16:29:03.829Z,24.29
2024-05-09T16:31:33.749Z,24.15
2024-05-09T16:34:03.876Z,24.00
2024-05-09T16:36:33.995Z,23.92
2024-05-09T16:39:04.350Z,23.83
2024-05-09T16:41:37.423Z,23.68
2024-05-09T16:44:07.646Z,23.55
2024-05-09T16:46:40.065Z,23.47
2024-05-09T16:49:10.990Z,23.74
2024-05-09T16:51:40.932Z,24.29
2024-05-09T16:54:10.874Z,24.78
2024-05-09T16:56:41.005Z,25.13
2024-05-09T16:59:11.115Z,25.40
2024-05-09T17:01:41.095Z,25.80
2024-05-09T17:04:11.290Z,26.21
2024-05-09T17:06:41.487Z,26.54
2024-05-09T17:09:15.445Z,26.77
2024-05-09T17:11:45.688Z,26.92
2024-05-09T17:14:16.182Z,27.21
2024-05-09T17:16:46.102Z,27.43
2024-05-09T17:19:16.973Z,27.53
2024-05-09T17:21:47.012Z,27.36
2024-05-09T17:24:17.329Z,27.51
2024-05-09T17:26:47.344Z,27.61
2024-05-09T17:29:17.345Z,27.73
2024-05-09T17:31:47.210Z,27.81
2024-05-09T17:34:17.327Z,27.97
2024-05-09T17:36:47.453Z,28.05
2024-05-09T17:39:17.386Z,28.04
2024-05-09T17:41:47.262Z,28.08
2024-05-09T17:44:17.213Z,28.17
2024-05-09T17:46:47.082Z,28.22
2024-05-09T17:49:17.112Z,28.20
2024-05-09T17:51:53.925Z,28.11
2024-05-09T17:54:22.409Z,28.04
2024-05-09T17:56:52.671Z,27.76
2024-05-09T17:59:22.554Z,27.50
2024-05-09T18:01:52.498Z,27.01
2024-05-09T18:04:22.605Z,26.41
2024-05-09T18:06:52.591Z,25.80
2024-05-09T18:09:22.540Z,25.14
2024-05-09T18:11:54.834Z,24.47
2024-05-09T18:14:24.804Z,23.84
2024-05-09T18:16:54.767Z,23.34
2024-05-09T18:19:24.859Z,22.91
2024-05-09T18:21:55.619Z,22.54
2024-05-09T18:24:25.559Z,22.26
2024-05-09T18:26:55.657Z,22.01
2024-05-09T18:29:25.565Z,21.80
2024-05-09T18:31:55.651Z,21.59
2024-05-09T18:34:25.654Z,21.33
2024-05-09T18:36:55.921Z,21.06
2024-05-09T18:39:25.900Z,20.79
2024-05-09T18:41:55.832Z,20.53
2024-05-09T18:44:26.796Z,20.25
2024-05-09T18:46:56.752Z,20.00
2024-05-09T18:49:26.979Z,19.74
2024-05-09T18:51:57.034Z,19.50
2024-05-09T18:54:26.989Z,19.25
2024-05-09T18:56:56.914Z,19.01
2024-05-09T18:59:27.030Z,18.77
2024-05-09T19:01:57.258Z,18.56
2024-05-09T19:04:27.389Z,18.39
2024-05-09T19:06:57.582Z,18.23
2024-05-09T19:09:27.565Z,18.10
2024-05-09T19:12:02.883Z,17.98
2024-05-09T19:14:32.768Z,17.84
2024-05-09T19:17:03.109Z,17.69
2024-05-09T19:19:33.169Z,17.56
2024-05-09T19:22:06.971Z,17.43
2024-05-09T19:24:36.938Z,17.32
2024-05-09T19:27:07.411Z,17.22
2024-05-09T19:29:37.325Z,17.13
2024-05-09T19:32:08.500Z,17.03
2024-05-09T19:34:38.597Z,16.94
2024-05-09T19:37:09.282Z,16.84
2024-05-09T19:39:39.243Z,16.76
2024-05-09T19:42:09.212Z,16.69
2024-05-09T19:44:39.182Z,16.63
2024-05-09T19:47:09.103Z,16.59
2024-05-09T19:49:39.131Z,16.54
2024-05-09T19:52:09.427Z,16.47
2024-05-09T19:54:39.612Z,16.41
2024-05-09T19:57:14.328Z,16.36
2024-05-09T19:59:44.337Z,16.29
2024-05-09T20:02:15.099Z,16.22
2024-05-09T20:04:45.622Z,16.16
2024-05-09T20:07:15.796Z,16.09
2024-05-09T20:09:45.804Z,16.02
2024-05-09T20:12:15.734Z,15.96
2024-05-09T20:14:45.744Z,15.90
2024-05-09T20:17:15.619Z,15.85
2024-05-09T20:19:46.196Z,15.80
2024-05-09T20:22:17.015Z,15.76
2024-05-09T20:24:47.379Z,15.72
2024-05-09T20:27:17.591Z,15.67
2024-05-09T20:29:47.522Z,15.62
2024-05-09T20:32:17.754Z,15.60
2024-05-09T20:34:50.232Z,15.56
2024-05-09T20:37:20.518Z,15.51
2024-05-09T20:39:53.364Z,15.46
2024-05-09T20:42:23.627Z,15.41
2024-05-09T20:44:53.523Z,15.39
2024-05-09T20:47:23.723Z,15.36
2024-05-09T20:49:53.804Z,15.31
2024-05-09T20:52:23.757Z,15.27
2024-05-09T20:54:53.620Z,15.24
2024-05-09T20:57:23.679Z,15.21
2024-05-09T20:59:53.533Z,15.16
2024-05-09T21:02:23.618Z,15.11
2024-05-09T21:04:53.804Z,15.06
2024-05-09T21:07:25.386Z,15.01
2024-05-09T21:09:56.067Z,14.98
2024-05-09T21:12:26.328Z,14.94
2024-05-09T21:14:56.500Z,14.90
2024-05-09T21:17:26.499Z,14.86
2024-05-09T21:19:56.693Z,14.81
2024-05-09T21:22:26.651Z,14.78
2024-05-09T21:24:56.589Z,14.74
2024-05-09T21:27:29.125Z,14.70
2024-05-09T21:29:59.001Z,14.66
2024-05-09T21:32:28.909Z,14.60
2024-05-09T21:34:58.954Z,14.57
2024-05-09T21:37:31.618Z,14.53
2024-05-09T21:40:05.108Z,14.49
2024-05-09T21:42:37.094Z,14.44
2024-05-09T21:45:08.936Z,14.40
2024-05-09T21:47:39.113Z,14.36
2024-05-09T21:50:18.301Z,14.32
2024-05-09T21:52:52.186Z,14.28
2024-05-09T21:55:22.178Z,14.25
2024-05-09T21:57:52.159Z,14.23
2024-05-09T22:00:28.980Z,14.20
2024-05-09T22:03:05.960Z,14.18
2024-05-09T22:05:37.146Z,14.14
2024-05-09T22:08:08.901Z,14.10
2024-05-09T22:10:38.940Z,14.06
2024-05-09T22:13:09.329Z,14.05
2024-05-09T22:15:40.714Z,14.02
2024-05-09T22:18:11.834Z,14.01
2024-05-09T22:20:43.917Z,13.98
2024-05-09T22:23:15.945Z,13.97
2024-05-09T22:25:45.900Z,13.97
2024-05-09T22:28:17.131Z,13.96
2024-05-09T22:30:47.743Z,13.97
2024-05-09T22:33:18.177Z,13.97
2024-05-09T22:35:48.371Z,13.98
2024-05-09T22:38:18.229Z,13.99
2024-05-09T22:40:49.864Z,14.00
2024-05-09T22:43:23.319Z,14.02
2024-05-09T22:45:55.561Z,14.03
2024-05-09T22:48:26.572Z,14.06
2024-05-09T22:50:56.619Z,14.06
2024-05-09T22:53:26.853Z,14.07
2024-05-09T22:55:56.737Z,14.07
2024-05-09T22:58:26.718Z,14.07
2024-05-09T23:00:56.702Z,14.08
2024-05-09T23:03:26.932Z,14.09
2024-05-09T23:05:56.981Z,14.07
2024-05-09T23:08:26.877Z,14.10
2024-05-09T23:10:56.845Z,14.10
2024-05-09T23:13:26.988Z,14.09
2024-05-09T23:15:57.128Z,14.10
2024-05-09T23:18:27.093Z,14.09
2024-05-09T23:20:57.243Z,14.08
2024-05-09T23:23:27.162Z,14.06
2024-05-09T23:25:57.073Z,14.06
2024-05-09T23:28:27.016Z,14.06
2024-05-09T23:30:57.022Z,14.06
2024-05-09T23:33:27.171Z,14.06
2024-05-09T23:35:57.144Z,14.06
2024-05-09T23:38:27.201Z,14.06
2024-05-09T23:40:57.146Z,14.09
2024-05-09T23:43:27.280Z,14.12
2024-05-09T23:45:57.421Z,14.14
2024-05-09T23:48:27.709Z,14.15
2024-05-09T23:50:57.614Z,14.17
2024-05-09T23:53:27.574Z,14.16
2024-05-09T23:55:57.546Z,14.14
2024-05-09T23:58:28.891Z,14.11
